Time;durP1;ratioP1;P1;durP2;ratioP2;P2;SDS_P1;SDS_P2;PMS_P1;PMS_P2;Temp;Humidity;BMP_temperature;BMP_pressure;BME280_temperature;BME280_humidity;BME280_pressure;Samples;Min_cycle;Max_cycle;Signal;HPM_P1;HPM_P2
2021/09/10 00:00:11;;;;;;;18.20;10.07;;;17.80;97.30;;;;;;5055626;28;20658;-81
2021/09/10 00:02:37;;;;;;;20.70;11.53;;;17.70;97.30;;;;;;5037577;28;20179;-83
2021/09/10 00:05:05;;;;;;;21.27;11.20;;;17.70;97.30;;;;;;5055073;28;20423;-83
2021/09/10 00:07:30;;;;;;;19.40;11.13;;;17.70;97.30;;;;;;5037278;28;20202;-83
2021/09/10 00:09:56;;;;;;;19.47;10.17;;;17.70;97.30;;;;;;5053891;28;20418;-83
2021/09/10 00:12:21;;;;;;;14.50;10.10;;;17.70;97.30;;;;;;5036038;28;20175;-83
2021/09/10 00:14:47;;;;;;;19.17;10.97;;;17.70;97.30;;;;;;5036243;28;20176;-83
2021/09/10 00:17:12;;;;;;;18.93;10.37;;;17.70;97.30;;;;;;5036025;28;20192;-83
2021/09/10 00:19:37;;;;;;;16.00;10.47;;;17.60;97.30;;;;;;5036599;28;20539;-83
2021/09/10 00:22:03;;;;;;;20.93;10.40;;;17.60;97.30;;;;;;5037306;28;20195;-83
2021/09/10 00:24:29;;;;;;;20.27;10.80;;;17.60;97.30;;;;;;5037969;28;20183;-83
2021/09/10 00:26:54;;;;;;;20.13;11.30;;;17.60;97.30;;;;;;5055628;28;20222;-83
2021/09/10 00:29:20;;;;;;;16.60;10.70;;;17.60;97.30;;;;;;5037308;28;20643;-84
2021/09/10 00:31:47;;;;;;;25.03;11.10;;;17.60;97.30;;;;;;5036020;28;20175;-83
2021/09/10 00:34:13;;;;;;;18.17;10.37;;;17.60;97.30;;;;;;5035635;28;20255;-84
2021/09/10 00:36:38;;;;;;;15.87;9.33;;;17.50;97.30;;;;;;5053626;28;20484;-83
2021/09/10 00:39:04;;;;;;;18.50;10.57;;;17.50;97.30;;;;;;5053536;28;20441;-84
2021/09/10 00:41:29;;;;;;;18.60;10.77;;;17.50;97.30;;;;;;5035523;28;20179;-83
2021/09/10 00:43:55;;;;;;;18.23;11.17;;;17.50;97.30;;;;;;5053730;28;20172;-84
2021/09/10 00:46:21;;;;;;;15.47;10.27;;;17.50;97.30;;;;;;5035816;28;20746;-84
2021/09/10 00:48:47;;;;;;;16.20;10.57;;;17.40;97.30;;;;;;5053829;28;20261;-83
2021/09/10 00:51:12;;;;;;;21.00;10.27;;;17.40;97.30;;;;;;5036520;28;20907;-83
2021/09/10 00:53:38;;;;;;;15.80;10.67;;;17.40;97.30;;;;;;5036828;28;20206;-83
2021/09/10 00:56:04;;;;;;;18.67;10.23;;;17.40;97.30;;;;;;5054718;28;20250;-84
2021/09/10 00:58:29;;;;;;;22.57;10.80;;;17.40;97.30;;;;;;5036826;28;20180;-84
2021/09/10 01:00:55;;;;;;;22.07;11.13;;;17.30;97.30;;;;;;5035171;28;20180;-83
2021/09/10 01:03:20;;;;;;;15.80;10.97;;;17.40;97.30;;;;;;5035361;28;20702;-84
2021/09/10 01:05:46;;;;;;;16.80;10.50;;;17.30;97.30;;;;;;5052924;28;20242;-83
2021/09/10 01:08:12;;;;;;;17.90;10.57;;;17.30;97.30;;;;;;5034379;28;20340;-83
2021/09/10 01:10:41;;;;;;;16.17;10.27;;;17.30;97.30;;;;;;5035211;28;20176;-84
2021/09/10 01:13:08;;;;;;;17.73;10.43;;;17.30;97.30;;;;;;5053222;28;20827;-83
2021/09/10 01:15:34;;;;;;;18.50;10.47;;;17.30;97.30;;;;;;5052943;28;20427;-83
2021/09/10 01:17:59;;;;;;;16.17;10.27;;;17.20;97.30;;;;;;5035276;28;20429;-83
2021/09/10 01:20:25;;;;;;;14.37;9.10;;;17.20;97.30;;;;;;5036088;28;20422;-83
2021/09/10 01:22:50;;;;;;;20.17;10.73;;;17.20;97.30;;;;;;5036317;28;20266;-83
2021/09/10 01:25:18;;;;;;;24.00;12.80;;;17.20;97.30;;;;;;5036322;28;20214;-83
2021/09/10 01:27:47;;;;;;;20.00;10.80;;;17.20;97.30;;;;;;5053712;28;20250;-83
2021/09/10 01:30:15;;;;;;;24.53;12.10;;;17.20;97.30;;;;;;5034970;28;20905;-83
2021/09/10 01:32:41;;;;;;;21.43;12.60;;;17.10;97.30;;;;;;5035604;28;20479;-83
2021/09/10 01:35:08;;;;;;;27.77;13.00;;;17.10;97.30;;;;;;5035207;28;20760;-83
2021/09/10 01:37:34;;;;;;;22.60;11.83;;;17.10;97.30;;;;;;5052205;28;20462;-83
2021/09/10 01:39:59;;;;;;;22.47;12.63;;;17.10;97.30;;;;;;5052523;28;20421;-83
2021/09/10 01:42:25;;;;;;;20.10;12.10;;;17.10;97.30;;;;;;5052850;28;20175;-83
2021/09/10 01:44:51;;;;;;;18.13;11.30;;;17.20;97.30;;;;;;5034369;28;20188;-82
2021/09/10 01:47:16;;;;;;;20.60;12.47;;;17.20;97.30;;;;;;5034643;28;20265;-83
2021/09/10 01:49:42;;;;;;;19.70;12.90;;;17.20;97.30;;;;;;5036247;28;20662;-83
2021/09/10 01:52:07;;;;;;;22.07;11.17;;;17.20;97.30;;;;;;5036231;28;20176;-83
2021/09/10 01:54:33;;;;;;;20.70;12.90;;;17.20;97.30;;;;;;5053957;28;20548;-83
2021/09/10 01:56:59;;;;;;;22.40;11.90;;;17.10;97.30;;;;;;5035112;28;20199;-84
2021/09/10 01:59:24;;;;;;;21.57;11.97;;;17.20;97.30;;;;;;5034665;28;20414;-84
2021/09/10 02:01:50;;;;;;;21.17;11.90;;;17.10;97.30;;;;;;5034754;28;20184;-83
2021/09/10 02:04:18;;;;;;;20.83;11.50;;;17.10;97.30;;;;;;5034966;28;20180;-84
2021/09/10 02:06:43;;;;;;;21.50;12.00;;;17.10;97.30;;;;;;5034431;28;20283;-83
2021/09/10 02:09:09;;;;;;;21.27;12.07;;;17.10;97.30;;;;;;5034987;28;21067;-83
2021/09/10 02:11:34;;;;;;;18.60;12.17;;;17.10;97.30;;;;;;5034929;28;20176;-83
2021/09/10 02:14:00;;;;;;;20.13;11.83;;;17.10;97.30;;;;;;5035264;28;20163;-83
2021/09/10 02:16:25;;;;;;;22.73;12.20;;;17.10;97.30;;;;;;5040546;28;20569;-83
2021/09/10 02:18:51;;;;;;;19.93;11.73;;;17.10;97.30;;;;;;5036443;28;20190;-83
2021/09/10 02:21:16;;;;;;;21.13;12.40;;;17.10;97.30;;;;;;5039765;28;20179;-83
2021/09/10 02:23:42;;;;;;;20.23;11.47;;;17.10;97.30;;;;;;5040011;28;20176;-83
2021/09/10 02:26:07;;;;;;;24.60;13.03;;;17.10;97.30;;;;;;5039201;28;20300;-83
2021/09/10 02:28:33;;;;;;;21.27;12.60;;;17.10;97.30;;;;;;5039123;28;20203;-83
2021/09/10 02:30:58;;;;;;;25.47;12.50;;;17.10;97.30;;;;;;5039197;28;20172;-84
2021/09/10 02:33:24;;;;;;;19.83;11.83;;;17.10;97.30;;;;;;5038732;28;20172;-84
2021/09/10 02:35:50;;;;;;;21.13;11.57;;;17.10;97.30;;;;;;5037819;28;20253;-84
2021/09/10 02:38:16;;;;;;;22.20;12.60;;;17.10;97.30;;;;;;5038065;28;20218;-84
2021/09/10 02:40:42;;;;;;;20.20;12.67;;;17.10;97.30;;;;;;5038056;28;20175;-83
2021/09/10 02:43:07;;;;;;;24.00;13.40;;;17.10;97.30;;;;;;5038023;28;20521;-84
2021/09/10 02:45:33;;;;;;;23.90;13.10;;;17.10;97.30;;;;;;5038481;28;20203;-83
2021/09/10 02:47:58;;;;;;;23.70;12.40;;;17.00;97.30;;;;;;5040034;28;20199;-83
2021/09/10 02:50:24;;;;;;;26.50;13.10;;;17.00;97.30;;;;;;5036304;28;20179;-82
2021/09/10 02:52:53;;;;;;;21.17;12.80;;;17.00;97.30;;;;;;5038767;28;20694;-83
2021/09/10 02:55:18;;;;;;;22.50;12.80;;;17.00;97.30;;;;;;5037253;28;20276;-82
2021/09/10 02:57:44;;;;;;;20.20;12.80;;;16.90;97.30;;;;;;5022869;28;20497;-83
2021/09/10 03:00:11;;;;;;;20.60;12.93;;;16.90;97.30;;;;;;5018198;28;20262;-83
2021/09/10 03:02:37;;;;;;;25.00;14.00;;;16.90;97.30;;;;;;5021562;28;20176;-83
2021/09/10 03:05:03;;;;;;;22.00;12.90;;;16.90;97.30;;;;;;5036793;28;20495;-83
2021/09/10 03:07:29;;;;;;;26.27;13.97;;;16.90;97.30;;;;;;5037290;28;20813;-83
2021/09/10 03:09:54;;;;;;;21.37;13.50;;;17.00;97.30;;;;;;5055511;28;20455;-83
2021/09/10 03:12:20;;;;;;;21.33;13.20;;;17.00;97.30;;;;;;5055426;28;20222;-84
2021/09/10 03:14:45;;;;;;;23.43;12.73;;;16.90;97.30;;;;;;5037966;28;20176;-83
2021/09/10 03:17:11;;;;;;;26.50;13.70;;;16.90;97.30;;;;;;5056757;28;20682;-83
2021/09/10 03:19:36;;;;;;;23.53;13.70;;;16.90;97.30;;;;;;5038866;28;20207;-84
2021/09/10 03:22:02;;;;;;;31.80;14.83;;;16.90;97.30;;;;;;5034765;28;20703;-83
2021/09/10 03:24:28;;;;;;;25.53;14.07;;;16.90;97.30;;;;;;5035275;28;20180;-83
2021/09/10 03:26:53;;;;;;;25.37;13.57;;;16.90;97.30;;;;;;5035099;28;20204;-83
2021/09/10 03:29:19;;;;;;;26.87;13.80;;;16.90;97.30;;;;;;5035392;28;20215;-83
2021/09/10 03:31:44;;;;;;;23.80;13.43;;;16.90;97.30;;;;;;5034141;28;20674;-83
2021/09/10 03:34:10;;;;;;;21.03;12.03;;;16.90;97.30;;;;;;5033546;28;20259;-83
2021/09/10 03:36:35;;;;;;;22.70;13.77;;;17.00;97.30;;;;;;5033685;28;20637;-84
2021/09/10 03:39:01;;;;;;;21.97;13.03;;;17.00;97.30;;;;;;5033720;28;20318;-84
2021/09/10 03:41:26;;;;;;;21.80;14.00;;;17.00;97.30;;;;;;5034307;28;20191;-84
2021/09/10 03:43:54;;;;;;;23.00;14.10;;;17.00;97.30;;;;;;5034621;28;20267;-84
2021/09/10 03:46:21;;;;;;;25.67;14.50;;;17.00;97.30;;;;;;5036408;28;20189;-84
2021/09/10 03:48:47;;;;;;;23.30;13.43;;;17.00;97.30;;;;;;5035254;28;20462;-84
2021/09/10 03:51:13;;;;;;;22.47;13.47;;;17.00;97.30;;;;;;5034609;28;20415;-84
2021/09/10 03:53:38;;;;;;;28.13;13.70;;;17.00;97.30;;;;;;5033191;28;20414;-83
2021/09/10 03:56:04;;;;;;;23.53;13.80;;;16.90;97.30;;;;;;5034632;28;20199;-82
2021/09/10 03:58:29;;;;;;;25.57;14.57;;;16.90;97.30;;;;;;5033146;28;20659;-83
2021/09/10 04:00:55;;;;;;;23.37;12.10;;;16.90;97.30;;;;;;5034210;28;20651;-84
2021/09/10 04:03:20;;;;;;;25.40;12.90;;;16.90;97.30;;;;;;5032973;28;20212;-84
2021/09/10 04:05:47;;;;;;;20.10;13.07;;;16.80;97.30;;;;;;5033374;28;20283;-83
2021/09/10 04:08:13;;;;;;;28.97;14.20;;;16.80;97.30;;;;;;5033230;28;20196;-84
2021/09/10 04:10:39;;;;;;;25.63;14.43;;;16.70;97.30;;;;;;5033384;28;20411;-84
2021/09/10 04:13:05;;;;;;;25.57;14.10;;;16.80;97.30;;;;;;5034506;28;20173;-83
2021/09/10 04:15:30;;;;;;;24.00;13.60;;;16.80;97.30;;;;;;5034856;28;20188;-84
2021/09/10 04:17:56;;;;;;;25.20;14.77;;;16.80;97.30;;;;;;5034902;28;20188;-83
2021/09/10 04:20:21;;;;;;;25.50;15.47;;;16.80;97.30;;;;;;5033153;28;20187;-83
2021/09/10 04:22:47;;;;;;;24.33;14.57;;;16.80;97.30;;;;;;5033189;28;20199;-83
2021/09/10 04:25:12;;;;;;;22.77;13.93;;;16.70;97.30;;;;;;5033085;28;20211;-83
2021/09/10 04:27:38;;;;;;;24.70;14.57;;;16.80;97.30;;;;;;5032834;28;20205;-83
2021/09/10 04:30:08;;;;;;;27.27;14.50;;;16.80;97.30;;;;;;5032791;28;20195;-84
2021/09/10 04:32:34;;;;;;;23.03;15.00;;;16.80;97.30;;;;;;5032704;28;20411;-83
2021/09/10 04:35:00;;;;;;;26.00;15.10;;;16.80;97.30;;;;;;5034364;28;20414;-83
2021/09/10 04:37:26;;;;;;;26.20;15.70;;;16.80;97.30;;;;;;5032712;28;20454;-84
2021/09/10 04:39:51;;;;;;;30.83;15.37;;;16.90;97.30;;;;;;5033617;28;20429;-83
2021/09/10 04:42:17;;;;;;;29.73;14.77;;;16.90;97.30;;;;;;5034236;28;20253;-83
2021/09/10 04:44:42;;;;;;;33.43;15.67;;;16.90;97.30;;;;;;5034191;28;20184;-83
2021/09/10 04:47:08;;;;;;;26.17;14.87;;;16.90;97.30;;;;;;5035126;28;20701;-83
2021/09/10 04:49:34;;;;;;;28.60;15.30;;;16.90;97.30;;;;;;5033588;28;20779;-83
2021/09/10 04:52:00;;;;;;;31.60;15.10;;;16.90;97.30;;;;;;5031922;28;20164;-83
2021/09/10 04:54:25;;;;;;;26.27;15.50;;;16.90;97.30;;;;;;5027732;28;20437;-83
2021/09/10 04:56:51;;;;;;;23.80;13.20;;;16.90;97.30;;;;;;5035564;28;20686;-83
2021/09/10 04:59:17;;;;;;;24.03;13.73;;;16.90;97.30;;;;;;5035201;28;20180;-83
2021/09/10 05:01:44;;;;;;;24.57;14.40;;;16.90;97.30;;;;;;5035264;28;20186;-83
2021/09/10 05:04:17;;;;;;;29.50;15.30;;;16.90;97.30;;;;;;5070696;28;20515;-77
2021/09/10 05:06:43;;;;;;;28.03;15.23;;;16.90;97.30;;;;;;5069457;28;20410;-80
2021/09/10 05:09:09;;;;;;;23.07;14.20;;;16.90;97.30;;;;;;5069331;28;20914;-77
2021/09/10 05:11:34;;;;;;;34.20;16.40;;;16.90;97.30;;;;;;5070116;28;20167;-77
2021/09/10 05:14:00;;;;;;;31.97;16.27;;;16.90;97.30;;;;;;5069307;28;20199;-77
2021/09/10 05:16:26;;;;;;;30.33;15.47;;;17.00;97.30;;;;;;5068948;28;20593;-77
2021/09/10 05:18:51;;;;;;;32.97;16.67;;;17.00;97.30;;;;;;5069077;28;20167;-77
2021/09/10 05:21:17;;;;;;;31.90;15.60;;;17.00;97.30;;;;;;5069257;28;20171;-77
2021/09/10 05:23:43;;;;;;;29.87;16.70;;;17.00;97.30;;;;;;5068243;28;20246;-77
2021/09/10 05:26:08;;;;;;;31.33;16.70;;;17.10;97.30;;;;;;5069595;28;20190;-80
2021/09/10 05:28:34;;;;;;;32.83;17.37;;;17.10;97.30;;;;;;5070099;28;20511;-77
2021/09/10 05:30:59;;;;;;;31.03;18.10;;;17.20;97.30;;;;;;5068949;28;20258;-77
2021/09/10 05:33:25;;;;;;;35.63;16.50;;;17.20;97.30;;;;;;5069897;28;20203;-77
2021/09/10 05:35:50;;;;;;;28.90;16.77;;;17.30;97.30;;;;;;5068721;28;20190;-80
2021/09/10 05:38:16;;;;;;;36.43;17.83;;;17.40;97.30;;;;;;5068343;28;20180;-76
2021/09/10 05:40:42;;;;;;;31.00;16.47;;;17.40;97.30;;;;;;5068778;28;20649;-77
2021/09/10 05:43:07;;;;;;;28.83;16.70;;;17.50;97.30;;;;;;5068288;28;20238;-77
2021/09/10 05:45:33;;;;;;;36.20;17.87;;;17.70;97.30;;;;;;5068584;28;20178;-79
2021/09/10 05:47:58;;;;;;;32.47;18.60;;;17.70;97.30;;;;;;5068618;28;20641;-79
2021/09/10 05:50:24;;;;;;;30.80;17.63;;;17.80;97.30;;;;;;5067904;28;20182;-79
2021/09/10 05:52:50;;;;;;;32.80;18.13;;;17.90;97.30;;;;;;5067926;28;20203;-79
2021/09/10 05:55:15;;;;;;;30.87;16.87;;;18.00;97.30;;;;;;5068194;28;20505;-79
2021/09/10 05:57:41;;;;;;;29.47;17.20;;;18.10;97.30;;;;;;5068551;28;20179;-79
2021/09/10 06:00:07;;;;;;;34.27;16.23;;;18.10;97.30;;;;;;5068051;28;20187;-79
2021/09/10 06:02:33;;;;;;;30.20;16.27;;;18.20;97.30;;;;;;5067730;28;20230;-77
2021/09/10 06:04:58;;;;;;;33.13;17.83;;;18.30;97.30;;;;;;5069183;28;20179;-79
2021/09/10 06:07:24;;;;;;;31.77;17.03;;;18.40;97.30;;;;;;5069334;28;20172;-80
2021/09/10 06:09:50;;;;;;;30.73;14.70;;;18.40;97.30;;;;;;5068247;28;20259;-79
2021/09/10 06:12:15;;;;;;;28.23;16.37;;;18.40;97.30;;;;;;5069064;28;20195;-79
2021/09/10 06:14:41;;;;;;;31.60;16.43;;;18.50;97.30;;;;;;5059602;28;20186;-79
2021/09/10 06:17:06;;;;;;;32.40;16.80;;;18.50;97.30;;;;;;5055785;28;20549;-78
2021/09/10 06:19:32;;;;;;;26.90;15.63;;;18.50;97.30;;;;;;5057071;28;20190;-79
2021/09/10 06:21:58;;;;;;;24.67;14.60;;;18.60;97.30;;;;;;5056515;28;20212;-78
2021/09/10 06:24:23;;;;;;;28.90;15.87;;;18.60;97.30;;;;;;5056512;28;20179;-79
2021/09/10 06:26:49;;;;;;;27.77;15.47;;;18.70;97.30;;;;;;5056985;28;20171;-79
2021/09/10 06:29:15;;;;;;;35.37;18.10;;;18.80;97.30;;;;;;5057894;28;20180;-79
2021/09/10 06:31:40;;;;;;;27.23;15.20;;;18.90;97.30;;;;;;5056374;28;20210;-79
2021/09/10 06:34:07;;;;;;;29.43;16.60;;;18.90;97.30;;;;;;5056571;28;20175;-78
2021/09/10 06:36:32;;;;;;;28.13;15.50;;;19.00;97.30;;;;;;5056365;28;20182;-79
2021/09/10 06:38:58;;;;;;;26.37;14.50;;;19.10;97.30;;;;;;5056436;28;20482;-77
2021/09/10 06:41:24;;;;;;;25.23;15.30;;;19.30;97.30;;;;;;5056213;28;20191;-79
2021/09/10 06:43:49;;;;;;;24.80;13.60;;;19.30;97.30;;;;;;5056029;28;20267;-79
2021/09/10 06:46:15;;;;;;;23.87;13.57;;;19.40;97.30;;;;;;5056528;28;20676;-79
2021/09/10 06:48:40;;;;;;;54.67;14.40;;;19.60;97.30;;;;;;5056617;28;20695;-79
2021/09/10 06:51:06;;;;;;;25.27;13.33;;;19.70;97.30;;;;;;5056515;28;20179;-78
2021/09/10 06:53:34;;;;;;;28.20;13.57;;;19.80;97.30;;;;;;5056134;28;20226;-78
2021/09/10 06:55:59;;;;;;;22.07;13.77;;;19.90;97.30;;;;;;5056214;28;21008;-79
2021/09/10 06:58:25;;;;;;;20.93;13.07;;;20.10;97.30;;;;;;5056467;28;20506;-78
2021/09/10 07:00:50;;;;;;;22.47;13.07;;;20.10;97.30;;;;;;5056914;28;20172;-78
2021/09/10 07:03:16;;;;;;;22.03;12.23;;;20.20;97.30;;;;;;5070859;28;20587;-78
2021/09/10 07:05:42;;;;;;;21.20;12.37;;;20.40;97.30;;;;;;5076133;28;20210;-79
2021/09/10 07:08:07;;;;;;;19.87;11.73;;;20.50;97.30;;;;;;5075279;28;20183;-78
2021/09/10 07:10:33;;;;;;;19.27;11.40;;;20.60;97.30;;;;;;5075731;28;20276;-78
2021/09/10 07:12:58;;;;;;;25.93;12.00;;;20.70;97.30;;;;;;5075584;28;20207;-78
2021/09/10 07:15:24;;;;;;;22.30;12.40;;;20.70;97.30;;;;;;5075989;28;20175;-79
2021/09/10 07:17:49;;;;;;;19.80;12.07;;;20.80;97.30;;;;;;5073342;28;20182;-78
2021/09/10 07:20:15;;;;;;;22.90;11.00;;;20.90;97.30;;;;;;5072743;28;20183;-80
2021/09/10 07:22:41;;;;;;;20.97;12.23;;;21.00;97.30;;;;;;5073745;28;20202;-78
2021/09/10 07:25:07;;;;;;;19.13;11.60;;;21.10;97.30;;;;;;5062353;28;20207;-78
2021/09/10 07:27:33;;;;;;;22.83;10.43;;;21.20;97.30;;;;;;5032601;28;20650;-78
2021/09/10 07:29:58;;;;;;;17.73;10.00;;;21.30;97.30;;;;;;5033384;28;20415;-78
2021/09/10 07:32:24;;;;;;;15.83;10.33;;;21.50;97.30;;;;;;5033791;28;20200;-79
2021/09/10 07:34:49;;;;;;;16.17;9.80;;;21.60;97.30;;;;;;5033159;28;20773;-78
2021/09/10 07:37:15;;;;;;;17.20;9.40;;;21.70;97.30;;;;;;5035228;28;20191;-78
2021/09/10 07:39:40;;;;;;;22.97;10.60;;;21.80;97.30;;;;;;5034300;28;20235;-78
2021/09/10 07:42:06;;;;;;;16.67;9.60;;;21.90;97.30;;;;;;5046595;28;20195;-78
2021/09/10 07:44:31;;;;;;;16.20;9.23;;;21.90;97.30;;;;;;5060548;28;20266;-78
2021/09/10 07:46:57;;;;;;;16.20;8.50;;;22.00;97.30;;;;;;5061978;28;20241;-78
2021/09/10 07:49:23;;;;;;;15.13;8.97;;;22.00;97.30;;;;;;5052730;28;20171;-79
2021/09/10 07:51:52;;;;;;;15.67;8.60;;;22.00;97.30;;;;;;5072332;28;20197;-78
2021/09/10 07:54:18;;;;;;;14.40;8.70;;;22.00;97.30;;;;;;5072875;28;20177;-79
2021/09/10 07:56:43;;;;;;;16.43;8.63;;;22.00;97.30;;;;;;5074615;28;20418;-79
2021/09/10 07:59:09;;;;;;;14.33;8.80;;;22.10;97.30;;;;;;5072422;28;20425;-78
2021/09/10 08:01:34;;;;;;;13.73;9.20;;;22.20;97.30;;;;;;5072054;28;20210;-79
2021/09/10 08:04:01;;;;;;;12.90;7.57;;;22.30;97.30;;;;;;5072881;28;20235;-78
2021/09/10 08:06:27;;;;;;;11.93;6.97;;;22.40;97.30;;;;;;5074247;28;20167;-80
2021/09/10 08:08:53;;;;;;;12.07;8.00;;;22.60;97.30;;;;;;5074382;28;20405;-79
2021/09/10 08:11:18;;;;;;;13.70;8.20;;;22.60;97.30;;;;;;5074531;28;20186;-78
2021/09/10 08:13:44;;;;;;;14.70;8.77;;;22.80;97.30;;;;;;5073247;28;20195;-78
2021/09/10 08:16:09;;;;;;;15.87;8.87;;;22.90;97.30;;;;;;5072705;28;20269;-79
2021/09/10 08:18:35;;;;;;;17.03;8.63;;;23.00;97.30;;;;;;5072534;28;20183;-78
2021/09/10 08:21:01;;;;;;;17.57;7.97;;;23.20;97.30;;;;;;5072520;28;20206;-79
2021/09/10 08:23:27;;;;;;;16.70;7.13;;;23.30;97.30;;;;;;5072598;28;20233;-78
2021/09/10 08:25:53;;;;;;;13.87;7.50;;;23.40;97.30;;;;;;5072069;28;20410;-78
2021/09/10 08:28:19;;;;;;;10.80;7.10;;;23.50;97.30;;;;;;5073212;28;20251;-79
2021/09/10 08:30:48;;;;;;;11.37;6.80;;;23.50;97.30;;;;;;5074350;28;20467;-79
2021/09/10 08:33:15;;;;;;;13.17;8.63;;;23.60;97.30;;;;;;5072393;28;20456;-78
2021/09/10 08:35:41;;;;;;;16.03;8.63;;;23.70;97.30;;;;;;5073403;28;20645;-78
2021/09/10 08:38:07;;;;;;;13.57;7.70;;;23.60;97.30;;;;;;5071806;28;20710;-79
2021/09/10 08:40:33;;;;;;;12.43;8.47;;;23.70;97.30;;;;;;5072981;28;20417;-78
2021/09/10 08:43:00;;;;;;;14.90;7.90;;;23.80;97.30;;;;;;5072651;28;20213;-78
2021/09/10 08:45:27;;;;;;;14.40;8.10;;;23.90;97.30;;;;;;5072313;28;20178;-78
2021/09/10 08:47:53;;;;;;;9.43;6.80;;;23.90;97.30;;;;;;5072005;28;20620;-78
2021/09/10 08:50:19;;;;;;;9.40;7.00;;;24.10;97.30;;;;;;5053483;28;20935;-78
2021/09/10 08:52:44;;;;;;;10.67;6.07;;;24.20;97.30;;;;;;5051082;28;20638;-78
2021/09/10 08:55:11;;;;;;;10.87;6.57;;;24.30;97.30;;;;;;5052861;28;20410;-79
2021/09/10 08:57:48;;;;;;;9.73;6.70;;;24.40;97.30;;;;;;5051794;28;20204;-78
2021/09/10 09:00:15;;;;;;;12.40;7.13;;;24.50;97.30;;;;;;5051441;28;20445;-78
2021/09/10 09:02:40;;;;;;;11.40;6.43;;;24.60;97.30;;;;;;5051099;28;20500;-80
2021/09/10 09:05:06;;;;;;;11.67;6.77;;;24.70;97.30;;;;;;5052683;28;20406;-77
2021/09/10 09:07:32;;;;;;;10.40;6.70;;;24.80;97.30;;;;;;5051488;28;20546;-78
2021/09/10 09:09:59;;;;;;;12.63;6.87;;;24.90;97.30;;;;;;5051421;28;20417;-78
2021/09/10 09:12:30;;;;;;;16.73;6.90;;;25.00;97.30;;;;;;5047456;28;20208;-79
2021/09/10 09:15:06;;;;;;;13.70;7.10;;;25.20;97.30;;;;;;5051446;28;20426;-78
2021/09/10 09:17:37;;;;;;;12.00;7.20;;;25.30;97.30;;;;;;5050976;28;20417;-79
2021/09/10 09:20:24;;;;;;;10.33;7.30;;;25.40;97.30;;;;;;5051553;28;20410;-78
2021/09/10 09:22:55;;;;;;;10.87;7.63;;;25.40;97.30;;;;;;5052094;28;20543;-78
2021/09/10 09:25:44;;;;;;;15.83;8.20;;;25.40;96.90;;;;;;5051102;28;20418;-79
2021/09/10 09:28:22;;;;;;;8.63;7.47;;;25.30;96.90;;;;;;5051800;28;20489;-79
2021/09/10 09:30:50;;;;;;;12.13;7.87;;;25.40;97.30;;;;;;5051610;28;20802;-79
2021/09/10 09:33:17;;;;;;;15.93;8.20;;;25.40;97.30;;;;;;5051949;28;21013;-79
2021/09/10 09:35:44;;;;;;;16.73;7.80;;;25.40;97.30;;;;;;5051289;28;20433;-79
2021/09/10 09:38:11;;;;;;;11.53;7.90;;;25.40;97.30;;;;;;5051218;28;20419;-78
2021/09/10 09:40:37;;;;;;;12.60;7.50;;;25.40;97.30;;;;;;5053148;28;20410;-79
2021/09/10 09:43:21;;;;;;;11.37;7.50;;;25.40;97.10;;;;;;5051773;28;20815;-79
2021/09/10 09:45:54;;;;;;;10.20;7.70;;;25.40;97.30;;;;;;5051558;28;20171;-78
2021/09/10 09:48:21;;;;;;;11.90;8.03;;;25.40;97.30;;;;;;5052255;28;20586;-79
2021/09/10 09:50:49;;;;;;;12.37;7.27;;;25.50;97.20;;;;;;5052261;28;20413;-79
2021/09/10 09:53:16;;;;;;;15.90;7.97;;;25.50;97.30;;;;;;5056680;28;20456;-79
2021/09/10 09:55:46;;;;;;;9.60;7.23;;;25.50;97.00;;;;;;5056194;28;20426;-79
2021/09/10 09:58:14;;;;;;;10.33;7.03;;;25.60;97.30;;;;;;5057305;28;20468;-78
2021/09/10 10:00:40;;;;;;;13.00;7.60;;;25.60;96.50;;;;;;5057581;28;20414;-79
2021/09/10 10:03:07;;;;;;;16.90;7.40;;;25.70;97.30;;;;;;5055615;28;20492;-78
2021/09/10 10:05:42;;;;;;;21.57;7.87;;;25.80;97.00;;;;;;5053866;28;20414;-78
2021/09/10 10:08:13;;;;;;;11.77;7.40;;;25.80;96.90;;;;;;5039901;28;20489;-78
2021/09/10 10:10:45;;;;;;;11.93;7.40;;;25.90;96.80;;;;;;5042635;28;20447;-79
2021/09/10 10:13:26;;;;;;;18.93;7.40;;;26.00;96.30;;;;;;5034863;28;20438;-79
2021/09/10 10:15:52;;;;;;;15.57;7.67;;;26.00;96.40;;;;;;5034611;28;20411;-79
2021/09/10 10:18:39;;;;;;;11.90;7.07;;;26.00;96.20;;;;;;5036759;28;20415;-79
2021/09/10 10:21:05;;;;;;;9.43;6.60;;;26.20;96.10;;;;;;5035430;28;21224;-79
2021/09/10 10:23:43;;;;;;;12.90;7.13;;;26.40;96.20;;;;;;5048712;28;20476;-79
2021/09/10 10:26:12;;;;;;;9.90;6.17;;;26.60;95.70;;;;;;5049365;28;20521;-79
2021/09/10 10:28:42;;;;;;;10.63;6.50;;;26.80;94.20;;;;;;5038846;28;20489;-79
2021/09/10 10:31:08;;;;;;;15.83;7.40;;;26.80;93.40;;;;;;5033193;28;20444;-79
2021/09/10 10:33:34;;;;;;;9.30;6.60;;;26.90;93.20;;;;;;5048528;28;20440;-79
2021/09/10 10:36:28;;;;;;;8.60;6.43;;;26.80;91.80;;;;;;5042115;28;20246;-79
2021/09/10 10:39:30;;;;;;;13.90;7.20;;;26.70;92.70;;;;;;5048598;28;20184;-79
2021/09/10 10:42:02;;;;;;;12.17;7.30;;;26.70;92.50;;;;;;5044887;28;20860;-78
2021/09/10 10:44:34;;;;;;;9.53;6.80;;;26.60;92.60;;;;;;5053685;28;20761;-79
2021/09/10 10:47:11;;;;;;;12.87;7.80;;;26.60;92.80;;;;;;5053734;28;20418;-79
2021/09/10 10:49:48;;;;;;;13.17;7.07;;;26.60;93.00;;;;;;5037840;28;20454;-79
2021/09/10 10:52:33;;;;;;;8.60;6.60;;;26.50;93.20;;;;;;5034911;28;20446;-78
2021/09/10 10:55:21;;;;;;;11.20;7.10;;;26.40;92.80;;;;;;5033982;28;20415;-79
2021/09/10 10:57:49;;;;;;;9.33;7.50;;;26.40;93.40;;;;;;5034103;28;20537;-79
2021/09/10 11:00:32;;;;;;;11.57;7.43;;;26.40;93.60;;;;;;5035217;28;20419;-78
2021/09/10 11:03:13;;;;;;;10.40;7.20;;;26.40;93.40;;;;;;5038638;28;20471;-79
2021/09/10 11:05:43;;;;;;;12.80;7.90;;;26.40;93.30;;;;;;5044632;28;20421;-80
2021/09/10 11:08:09;;;;;;;8.23;6.37;;;26.30;93.90;;;;;;5035938;28;20885;-79
2021/09/10 11:10:35;;;;;;;12.43;6.73;;;26.20;93.70;;;;;;5038739;28;20883;-79
2021/09/10 11:13:01;;;;;;;8.23;6.27;;;26.30;93.70;;;;;;5033913;28;20458;-78
2021/09/10 11:15:31;;;;;;;9.27;6.13;;;26.40;93.40;;;;;;5033984;28;20621;-80
2021/09/10 11:18:04;;;;;;;10.07;6.70;;;26.40;92.60;;;;;;5033024;28;20433;-80
2021/09/10 11:20:33;;;;;;;8.80;7.23;;;26.60;92.50;;;;;;5033775;28;20418;-79
2021/09/10 11:22:58;;;;;;;10.27;6.40;;;26.80;92.10;;;;;;5033921;28;20467;-80
2021/09/10 11:25:24;;;;;;;10.50;6.93;;;27.00;91.20;;;;;;5033952;28;20494;-80
2021/09/10 11:27:50;;;;;;;10.70;6.53;;;27.10;91.60;;;;;;5033859;28;20180;-81
2021/09/10 11:30:16;;;;;;;9.80;6.43;;;27.30;90.50;;;;;;5035642;28;20172;-79
2021/09/10 11:32:42;;;;;;;8.90;6.73;;;27.40;90.10;;;;;;5033790;28;20513;-78
2021/09/10 11:35:19;;;;;;;7.33;5.70;;;27.60;89.80;;;;;;5050134;28;20654;-79
2021/09/10 11:38:13;;;;;;;11.13;6.93;;;27.70;90.00;;;;;;5053172;28;20194;-78
2021/09/10 11:40:45;;;;;;;13.30;6.47;;;27.80;89.40;;;;;;5040833;28;20447;-80
2021/09/10 11:43:26;;;;;;;8.60;6.70;;;27.80;88.90;;;;;;5037368;28;20471;-78
2021/09/10 11:45:57;;;;;;;9.50;5.90;;;27.70;87.70;;;;;;5034280;28;20426;-78
2021/09/10 11:48:32;;;;;;;10.53;6.00;;;27.50;88.80;;;;;;5042909;28;20435;-78
2021/09/10 11:51:04;;;;;;;8.80;6.60;;;27.40;90.40;;;;;;5037120;28;20427;-79
2021/09/10 11:53:34;;;;;;;10.47;7.63;;;27.50;90.30;;;;;;5034708;28;20485;-79
2021/09/10 11:56:06;;;;;;;9.73;7.70;;;27.50;90.60;;;;;;5036438;28;20435;-79
2021/09/10 11:58:42;;;;;;;11.87;8.10;;;27.50;91.10;;;;;;5051307;28;20899;-79
2021/09/10 12:01:31;;;;;;;9.93;7.30;;;27.40;90.80;;;;;;5036899;28;20489;-79
2021/09/10 12:04:02;;;;;;;10.40;8.00;;;27.30;91.40;;;;;;5048892;28;20478;-80
2021/09/10 12:06:33;;;;;;;16.07;8.23;;;27.30;91.10;;;;;;5052778;28;20429;-80
2021/09/10 12:09:22;;;;;;;8.90;7.70;;;27.30;91.60;;;;;;5053215;28;20418;-80
2021/09/10 12:12:03;;;;;;;9.50;7.50;;;27.40;91.50;;;;;;5052559;28;20438;-79
2021/09/10 12:14:49;;;;;;;10.90;7.50;;;27.50;90.70;;;;;;5053098;28;20417;-80
2021/09/10 12:17:24;;;;;;;9.90;7.23;;;27.60;89.50;;;;;;5054892;28;20397;-80
2021/09/10 12:20:09;;;;;;;8.60;6.60;;;27.60;90.50;;;;;;5053785;28;20408;-80
2021/09/10 12:22:48;;;;;;;8.87;6.30;;;27.70;89.80;;;;;;5054450;28;20458;-79
2021/09/10 12:25:26;;;;;;;12.23;6.33;;;27.80;89.60;;;;;;5053438;28;20429;-81
2021/09/10 12:27:55;;;;;;;8.97;6.50;;;28.00;89.90;;;;;;5053869;28;20423;-78
2021/09/10 12:30:22;;;;;;;11.40;7.17;;;28.20;88.80;;;;;;5050980;28;20415;-79
2021/09/10 12:32:48;;;;;;;13.67;6.90;;;28.30;88.00;;;;;;5053386;28;20450;-80